createdAt,value
2023-03-26T00:01:36.221Z,8.10
2023-03-26T00:04:06.544Z,8.10
2023-03-26T00:06:39.041Z,8.10
2023-03-26T00:09:09.762Z,8.10
2023-03-26T00:11:36.464Z,8.20
2023-03-26T00:14:03.770Z,8.20
2023-03-26T00:16:32.375Z,8.20
2023-03-26T00:19:02.678Z,8.20
2023-03-26T00:21:30.888Z,8.20
2023-03-26T00:24:04.159Z,8.20
2023-03-26T00:26:35.246Z,8.20
2023-03-26T00:29:03.476Z,8.30
2023-03-26T00:31:31.207Z,8.30
2023-03-26T00:33:57.870Z,8.40
2023-03-26T00:36:26.481Z,8.40
2023-03-26T00:38:54.306Z,8.40
2023-03-26T00:41:25.601Z,8.40
2023-03-26T00:43:58.222Z,8.30
2023-03-26T00:46:31.098Z,8.30
2023-03-26T00:48:59.715Z,8.30
2023-03-26T00:51:27.826Z,8.30
2023-03-26T00:53:54.956Z,8.30
2023-03-26T00:56:21.605Z,8.40
2023-03-26T00:58:50.046Z,8.30
2023-03-26T01:01:27.166Z,8.30
2023-03-26T01:04:07.409Z,8.20
2023-03-26T01:06:41.290Z,8.20
2023-03-26T01:09:17.430Z,8.20
2023-03-26T01:11:45.350Z,8.20
2023-03-26T01:14:16.687Z,8.20
2023-03-26T01:17:00.594Z,8.20
2023-03-26T01:19:45.373Z,8.10
2023-03-26T01:22:23.153Z,8.10
2023-03-26T01:24:53.726Z,8.20
2023-03-26T01:27:58.797Z,8.20
2023-03-26T01:30:41.430Z,8.10
2023-03-26T01:33:29.941Z,8.00
2023-03-26T01:36:42.540Z,7.90
2023-03-26T01:39:25.156Z,7.80
2023-03-26T01:41:57.509Z,7.80
2023-03-26T01:45:15.348Z,7.80
2023-03-26T01:47:43.886Z,7.90
2023-03-26T01:50:11.253Z,7.90
2023-03-26T01:52:37.970Z,7.80
2023-03-26T01:55:06.701Z,7.90
2023-03-26T01:57:42.877Z,8.00
2023-03-26T02:00:27.700Z,7.90
2023-03-26T02:03:22.884Z,7.90
2023-03-26T02:05:58.166Z,7.80
2023-03-26T02:08:41.158Z,7.80
2023-03-26T02:11:13.120Z,7.70
2023-03-26T02:13:44.325Z,7.60
2023-03-26T02:16:16.167Z,7.60
2023-03-26T02:18:45.500Z,7.60
2023-03-26T02:21:22.401Z,7.50
2023-03-26T02:24:03.028Z,7.50
2023-03-26T02:26:33.237Z,7.50
2023-03-26T02:29:01.627Z,7.50
2023-03-26T02:31:28.348Z,7.50
2023-03-26T02:33:55.597Z,7.40
2023-03-26T02:36:27.169Z,7.40
2023-03-26T02:38:57.943Z,7.30
2023-03-26T02:41:24.803Z,7.20
2023-03-26T02:43:51.774Z,7.20
2023-03-26T02:46:21.253Z,7.10
2023-03-26T02:48:48.605Z,7.00
2023-03-26T02:51:18.033Z,6.90
2023-03-26T02:53:44.669Z,6.90
2023-03-26T02:56:12.496Z,7.00
2023-03-26T02:58:39.127Z,7.00
2023-03-26T03:01:05.810Z,7.00
2023-03-26T03:03:35.256Z,7.00
2023-03-26T03:06:02.080Z,7.00
2023-03-26T03:08:29.235Z,7.10
2023-03-26T03:10:58.778Z,7.10
2023-03-26T03:13:25.451Z,7.10
2023-03-26T03:15:52.692Z,7.00
2023-03-26T03:18:19.492Z,7.00
2023-03-26T03:20:46.735Z,7.00
2023-03-26T03:23:13.934Z,6.90
2023-03-26T03:25:41.073Z,6.90
2023-03-26T03:28:09.101Z,6.90
2023-03-26T03:30:36.027Z,6.90
2023-03-26T03:33:03.018Z,6.90
2023-03-26T03:35:30.346Z,6.90
2023-03-26T03:37:57.961Z,6.90
2023-03-26T03:40:26.726Z,6.90
2023-03-26T03:42:53.308Z,6.80
2023-03-26T03:45:19.926Z,6.80
2023-03-26T03:47:46.504Z,6.80
2023-03-26T03:50:13.136Z,6.70
2023-03-26T03:52:40.103Z,6.70
2023-03-26T03:55:07.077Z,6.70
2023-03-26T03:57:34.524Z,6.60
2023-03-26T04:00:01.330Z,6.60
2023-03-26T04:02:34.387Z,6.60
2023-03-26T04:05:02.704Z,6.60
2023-03-26T04:07:31.127Z,6.60
2023-03-26T04:10:03.272Z,6.50
2023-03-26T04:12:30.930Z,6.50
2023-03-26T04:14:59.025Z,6.40
2023-03-26T04:17:26.354Z,6.30
2023-03-26T04:19:54.749Z,6.30
2023-03-26T04:22:22.428Z,6.30
2023-03-26T04:24:50.038Z,6.20
2023-03-26T04:27:21.359Z,6.20
2023-03-26T04:29:49.641Z,6.20
2023-03-26T04:32:30.045Z,6.10
2023-03-26T04:35:00.542Z,6.00
2023-03-26T04:37:47.635Z,6.00
2023-03-26T04:40:21.909Z,5.90
2023-03-26T04:42:48.654Z,5.90
2023-03-26T04:45:22.329Z,5.90
2023-03-26T04:47:50.183Z,5.90
2023-03-26T04:50:17.173Z,5.90
2023-03-26T04:52:45.282Z,5.90
2023-03-26T04:55:27.812Z,5.90
2023-03-26T04:57:57.656Z,5.90
2023-03-26T05:00:24.642Z,6.00
2023-03-26T05:02:55.714Z,6.00
2023-03-26T05:05:22.569Z,6.00
2023-03-26T05:07:49.165Z,6.10
2023-03-26T05:10:16.699Z,6.10
2023-03-26T05:12:43.627Z,6.10
2023-03-26T05:15:11.630Z,6.10
2023-03-26T05:17:41.400Z,6.10
2023-03-26T05:20:30.996Z,6.30
2023-03-26T05:22:57.949Z,6.30
2023-03-26T05:25:24.632Z,6.40
2023-03-26T05:27:51.254Z,6.40
2023-03-26T05:30:21.000Z,6.50
2023-03-26T05:32:49.598Z,6.50
2023-03-26T05:35:17.287Z,6.60
2023-03-26T05:37:45.463Z,6.60
2023-03-26T05:40:14.956Z,6.60
2023-03-26T05:42:41.955Z,6.60
2023-03-26T05:45:11.284Z,6.50
2023-03-26T05:47:38.431Z,6.40
2023-03-26T05:50:07.350Z,6.40
2023-03-26T05:52:33.966Z,6.40
2023-03-26T05:55:00.544Z,6.40
2023-03-26T05:57:30.590Z,6.40
2023-03-26T05:59:57.210Z,6.40
2023-03-26T06:02:24.204Z,6.40
2023-03-26T06:04:50.995Z,6.30
2023-03-26T06:07:19.592Z,6.20
2023-03-26T06:09:46.313Z,6.30
2023-03-26T06:12:13.164Z,6.30
2023-03-26T06:14:42.720Z,6.20
2023-03-26T06:17:10.458Z,6.30
2023-03-26T06:19:37.604Z,6.30
2023-03-26T06:22:05.418Z,6.30
2023-03-26T06:24:33.111Z,6.30
2023-03-26T06:26:59.739Z,6.30
2023-03-26T06:29:26.898Z,6.30
2023-03-26T06:31:53.544Z,6.30
2023-03-26T06:34:20.457Z,6.40
2023-03-26T06:36:48.672Z,6.40
2023-03-26T06:39:15.856Z,6.50
2023-03-26T06:41:42.479Z,6.60
2023-03-26T06:44:09.289Z,6.60
2023-03-26T06:46:36.254Z,6.60
2023-03-26T06:49:03.114Z,6.70
2023-03-26T06:51:29.737Z,6.80
2023-03-26T06:53:56.463Z,6.80
2023-03-26T06:56:23.023Z,6.90
2023-03-26T06:58:52.218Z,7.00
2023-03-26T07:01:18.893Z,7.20
2023-03-26T07:03:45.767Z,7.20
2023-03-26T07:06:12.431Z,7.30
2023-03-26T07:08:39.027Z,7.30
2023-03-26T07:11:06.036Z,7.30
2023-03-26T07:13:32.622Z,7.30
2023-03-26T07:15:59.199Z,7.30
2023-03-26T07:18:25.972Z,7.40
2023-03-26T07:20:53.422Z,7.50
2023-03-26T07:23:21.223Z,7.50
2023-03-26T07:25:49.579Z,7.60
2023-03-26T07:28:42.006Z,7.70
2023-03-26T07:31:34.754Z,7.70
2023-03-26T07:34:17.750Z,7.70
2023-03-26T07:37:02.222Z,7.70
2023-03-26T07:39:45.554Z,7.80
2023-03-26T07:42:42.388Z,7.80
2023-03-26T07:45:39.424Z,7.80
2023-03-26T07:48:29.801Z,7.80
2023-03-26T07:50:58.456Z,7.80
2023-03-26T07:53:25.334Z,7.80
2023-03-26T07:56:16.752Z,7.80
2023-03-26T07:58:49.863Z,7.90
2023-03-26T08:01:43.339Z,8.00
2023-03-26T08:04:50.029Z,8.10
2023-03-26T08:07:50.656Z,8.10
2023-03-26T08:10:27.330Z,8.20
2023-03-26T08:13:19.764Z,8.20
2023-03-26T08:16:12.490Z,8.20
2023-03-26T08:19:01.789Z,8.30
2023-03-26T08:21:51.511Z,8.30
2023-03-26T08:24:25.157Z,8.30
2023-03-26T08:27:21.304Z,8.30
2023-03-26T08:30:17.769Z,8.40
2023-03-26T08:33:00.672Z,8.40
2023-03-26T08:35:28.249Z,8.30
2023-03-26T08:37:54.894Z,8.30
2023-03-26T08:40:54.720Z,8.30
2023-03-26T08:43:42.528Z,8.20
2023-03-26T08:46:51.328Z,8.20
2023-03-26T08:49:59.577Z,8.10
2023-03-26T08:53:37.444Z,8.10
2023-03-26T08:56:24.335Z,8.10
2023-03-26T08:59:18.882Z,8.10
2023-03-26T09:02:11.096Z,8.10
2023-03-26T09:05:24.500Z,8.10
2023-03-26T09:08:08.422Z,8.10
2023-03-26T09:10:51.803Z,8.10
2023-03-26T09:14:04.611Z,8.20
2023-03-26T09:17:05.330Z,8.20
2023-03-26T09:20:02.671Z,8.30
2023-03-26T09:23:13.942Z,8.40
2023-03-26T09:26:04.750Z,8.30
2023-03-26T09:29:12.174Z,8.30
2023-03-26T09:32:07.420Z,8.20
2023-03-26T09:35:08.191Z,8.30
2023-03-26T09:38:33.432Z,8.30
2023-03-26T09:41:33.895Z,8.30
2023-03-26T09:44:29.471Z,8.30
2023-03-26T09:46:56.241Z,8.40
2023-03-26T09:49:42.082Z,8.40
2023-03-26T09:52:25.366Z,8.30
2023-03-26T09:55:20.090Z,8.30
2023-03-26T09:58:25.663Z,8.30
2023-03-26T10:01:12.413Z,8.30
2023-03-26T10:03:58.270Z,8.20
2023-03-26T10:06:53.046Z,8.20
2023-03-26T10:09:52.044Z,8.20
2023-03-26T10:12:46.206Z,8.10
2023-03-26T10:15:26.662Z,8.20
2023-03-26T10:18:29.886Z,8.20
2023-03-26T10:21:28.675Z,8.30
2023-03-26T10:24:27.126Z,8.60
2023-03-26T10:27:12.680Z,9.20
2023-03-26T10:29:54.028Z,9.70
2023-03-26T10:33:15.271Z,10.00
2023-03-26T10:35:56.498Z,10.10
2023-03-26T10:38:53.624Z,10.50
2023-03-26T10:41:48.298Z,10.60
2023-03-26T10:44:43.502Z,10.80
2023-03-26T10:47:37.001Z,10.70
2023-03-26T10:50:47.418Z,10.30
2023-03-26T10:53:44.749Z,10.00
2023-03-26T10:56:28.778Z,9.70
2023-03-26T10:58:56.903Z,9.70
2023-03-26T11:02:04.826Z,9.70
2023-03-26T11:04:55.713Z,9.90
2023-03-26T11:07:59.693Z,10.20
2023-03-26T11:11:01.398Z,10.30
2023-03-26T11:13:51.337Z,10.50
2023-03-26T11:16:56.171Z,10.70
2023-03-26T11:19:35.835Z,10.40
2023-03-26T11:22:17.499Z,10.00
2023-03-26T11:25:32.689Z,10.10
2023-03-26T11:28:23.620Z,10.10
2023-03-26T11:31:07.851Z,9.90
2023-03-26T11:33:45.597Z,9.90
2023-03-26T11:36:22.627Z,9.90
2023-03-26T11:38:57.626Z,9.90
2023-03-26T11:41:27.953Z,9.90
2023-03-26T11:44:00.010Z,10.00
2023-03-26T11:46:27.176Z,9.90
2023-03-26T11:48:59.371Z,9.90
2023-03-26T11:51:37.783Z,10.00
2023-03-26T11:54:07.910Z,10.30
2023-03-26T11:57:04.713Z,10.50
2023-03-26T11:59:57.661Z,10.50
2023-03-26T12:02:35.557Z,10.60
2023-03-26T12:05:19.868Z,10.90
2023-03-26T12:08:00.607Z,11.00
2023-03-26T12:10:39.707Z,11.00
2023-03-26T12:13:29.433Z,10.90
2023-03-26T12:16:18.932Z,10.80
2023-03-26T12:18:58.317Z,10.70
2023-03-26T12:21:25.137Z,10.60
2023-03-26T12:23:58.902Z,10.60
2023-03-26T12:26:41.158Z,10.70
2023-03-26T12:29:21.010Z,10.70
2023-03-26T12:31:55.655Z,10.60
2023-03-26T12:34:35.079Z,10.50
2023-03-26T12:37:03.993Z,10.60
2023-03-26T12:40:06.600Z,10.60
2023-03-26T12:44:45.936Z,10.70
2023-03-26T12:45:30.869Z,10.70
2023-03-26T12:48:04.295Z,10.60
2023-03-26T12:50:57.438Z,10.60
2023-03-26T12:54:05.478Z,10.60
2023-03-26T12:57:12.388Z,10.70
2023-03-26T13:00:21.335Z,10.80
2023-03-26T13:03:09.642Z,11.00
2023-03-26T13:06:00.345Z,11.10
2023-03-26T13:08:49.368Z,11.30
2023-03-26T13:11:53.761Z,11.30
2023-03-26T13:15:17.726Z,11.50
2023-03-26T13:18:19.565Z,11.70
2023-03-26T13:20:56.920Z,12.00
2023-03-26T13:23:36.030Z,12.10
2023-03-26T13:26:35.581Z,12.10
2023-03-26T13:29:20.858Z,12.30
2023-03-26T13:32:12.884Z,12.30
2023-03-26T13:34:57.534Z,12.30
2023-03-26T13:38:09.972Z,12.20
2023-03-26T13:41:07.138Z,12.00
2023-03-26T13:43:57.876Z,12.00
2023-03-26T13:46:35.424Z,12.10
2023-03-26T13:49:07.925Z,12.40
2023-03-26T13:51:55.378Z,12.60
2023-03-26T13:54:47.246Z,12.70
2023-03-26T13:57:33.142Z,12.70
2023-03-26T14:00:16.376Z,12.70
2023-03-26T14:02:47.563Z,12.60
2023-03-26T14:05:31.393Z,12.60
2023-03-26T14:08:10.386Z,12.50
2023-03-26T14:10:53.910Z,12.50
2023-03-26T14:13:39.684Z,12.50
2023-03-26T14:16:21.612Z,12.40
2023-03-26T14:19:50.065Z,12.50
2023-03-26T14:22:54.378Z,12.50
2023-03-26T14:26:06.641Z,12.30
2023-03-26T14:29:16.702Z,12.10
2023-03-26T14:32:15.083Z,11.90
2023-03-26T14:35:26.133Z,11.70
2023-03-26T14:38:37.964Z,11.40
2023-03-26T14:41:24.956Z,11.10
2023-03-26T14:44:48.114Z,10.90
2023-03-26T14:47:21.590Z,11.00
2023-03-26T14:50:31.467Z,11.00
2023-03-26T14:53:02.235Z,10.80
2023-03-26T14:56:24.825Z,10.60
2023-03-26T14:59:18.537Z,10.40
2023-03-26T15:02:16.100Z,9.90
2023-03-26T15:05:24.161Z,9.60
2023-03-26T15:08:17.044Z,9.40
2023-03-26T15:11:09.327Z,9.40
2023-03-26T15:14:36.748Z,9.30
2023-03-26T15:17:48.548Z,9.30
2023-03-26T15:21:01.782Z,9.20
2023-03-26T15:24:12.767Z,9.20
2023-03-26T15:27:13.687Z,9.20
2023-03-26T15:30:30.037Z,9.20
2023-03-26T15:33:46.755Z,9.20
2023-03-26T15:37:15.048Z,9.20
2023-03-26T15:40:22.081Z,9.10
2023-03-26T15:42:54.575Z,9.10
2023-03-26T15:45:41.014Z,9.10
2023-03-26T15:48:11.566Z,9.00
2023-03-26T15:51:28.738Z,8.80
2023-03-26T15:54:05.750Z,8.70
2023-03-26T15:56:48.885Z,8.60
2023-03-26T15:59:39.917Z,8.60
2023-03-26T16:02:07.491Z,8.60
2023-03-26T16:04:50.693Z,8.50
2023-03-26T16:08:02.679Z,8.40
2023-03-26T16:10:38.173Z,8.40
2023-03-26T16:13:19.638Z,8.40
2023-03-26T16:15:58.388Z,8.40
2023-03-26T16:18:37.012Z,8.40
2023-03-26T16:21:32.810Z,8.50
2023-03-26T16:24:02.798Z,8.50
2023-03-26T16:26:40.530Z,8.40
2023-03-26T16:29:25.546Z,8.50
2023-03-26T16:32:10.949Z,8.50
2023-03-26T16:35:14.975Z,8.60
2023-03-26T16:37:50.515Z,8.50
2023-03-26T16:40:20.730Z,8.50
2023-03-26T16:43:30.197Z,8.50
2023-03-26T16:46:24.617Z,8.60
2023-03-26T16:49:17.021Z,8.60
2023-03-26T16:51:53.438Z,8.70
2023-03-26T16:54:43.737Z,8.70
2023-03-26T16:57:27.816Z,8.70
2023-03-26T17:00:15.048Z,8.70
2023-03-26T17:03:28.064Z,8.60
2023-03-26T17:05:57.842Z,8.60
2023-03-26T17:08:58.351Z,8.60
2023-03-26T17:11:43.731Z,8.50
2023-03-26T17:14:40.624Z,8.40
2023-03-26T17:17:59.793Z,8.30
2023-03-26T17:20:39.939Z,8.30
2023-03-26T17:23:31.361Z,8.30
2023-03-26T17:26:23.780Z,8.30
2023-03-26T17:29:28.244Z,8.30
2023-03-26T17:32:15.020Z,8.30
2023-03-26T17:34:50.881Z,8.20
2023-03-26T17:37:18.729Z,8.10
2023-03-26T17:39:46.704Z,8.10
2023-03-26T17:42:35.325Z,8.10
2023-03-26T17:45:15.815Z,8.00
2023-03-26T17:47:53.606Z,7.90
2023-03-26T17:50:27.443Z,7.90
2023-03-26T17:53:04.725Z,7.90
2023-03-26T17:55:36.464Z,7.90
2023-03-26T17:58:07.251Z,7.90
2023-03-26T18:00:44.698Z,7.90
2023-03-26T18:03:23.753Z,7.90
2023-03-26T18:06:04.048Z,7.90
2023-03-26T18:08:57.939Z,7.90
2023-03-26T18:11:43.911Z,7.90
2023-03-26T18:14:34.842Z,7.90
2023-03-26T18:17:02.297Z,7.90
2023-03-26T18:19:31.732Z,7.90
2023-03-26T18:22:04.378Z,7.90
2023-03-26T18:24:40.307Z,7.90
2023-03-26T18:27:14.686Z,7.90
2023-03-26T18:29:56.491Z,7.90
2023-03-26T18:32:33.263Z,7.80
2023-03-26T18:35:15.398Z,7.90
2023-03-26T18:37:44.161Z,7.90
2023-03-26T18:40:23.364Z,7.90
2023-03-26T18:42:53.675Z,7.90
2023-03-26T18:45:23.359Z,7.90
2023-03-26T18:47:55.803Z,7.90
2023-03-26T18:50:30.911Z,7.90
2023-03-26T18:53:00.377Z,7.90
2023-03-26T18:55:29.771Z,7.90
2023-03-26T18:57:57.233Z,7.80
2023-03-26T19:00:28.488Z,7.80
2023-03-26T19:03:05.863Z,7.80
2023-03-26T19:05:37.131Z,7.70
2023-03-26T19:08:06.221Z,7.80
2023-03-26T19:10:33.435Z,7.70
2023-03-26T19:13:04.134Z,7.70
2023-03-26T19:15:33.630Z,7.70
2023-03-26T19:18:07.219Z,7.70
2023-03-26T19:20:48.183Z,7.80
2023-03-26T19:23:19.101Z,7.70
2023-03-26T19:25:54.634Z,7.80
2023-03-26T19:28:34.558Z,7.80
2023-03-26T19:31:32.969Z,7.70
2023-03-26T19:34:14.765Z,7.70
2023-03-26T19:37:01.947Z,7.70
2023-03-26T19:39:42.535Z,7.60
2023-03-26T19:42:43.899Z,7.50
2023-03-26T19:45:19.417Z,7.50
2023-03-26T19:47:54.357Z,7.40
2023-03-26T19:50:30.433Z,7.40
2023-03-26T19:53:21.976Z,7.50
2023-03-26T19:56:13.063Z,7.50
2023-03-26T19:58:41.534Z,7.40
2023-03-26T20:01:19.644Z,7.50
2023-03-26T20:03:49.243Z,7.40
2023-03-26T20:06:23.679Z,7.40
2023-03-26T20:08:54.835Z,7.30
2023-03-26T20:11:33.117Z,7.30
2023-03-26T20:14:01.462Z,7.30
2023-03-26T20:16:34.156Z,7.30
2023-03-26T20:19:04.307Z,7.20
2023-03-26T20:21:34.508Z,7.20
2023-03-26T20:24:01.820Z,7.20
2023-03-26T20:26:29.333Z,7.20
2023-03-26T20:28:56.161Z,7.10
2023-03-26T20:31:26.647Z,7.00
2023-03-26T20:33:54.363Z,7.00
2023-03-26T20:36:33.214Z,7.00
2023-03-26T20:39:08.187Z,7.00
2023-03-26T20:41:40.134Z,6.90
2023-03-26T20:44:17.126Z,6.90
2023-03-26T20:46:45.640Z,6.90
2023-03-26T20:49:14.665Z,6.90
2023-03-26T20:51:42.040Z,6.90
2023-03-26T20:54:18.942Z,6.90
2023-03-26T20:56:47.515Z,6.80
2023-03-26T20:59:26.023Z,6.80
2023-03-26T21:01:54.530Z,6.80
2023-03-26T21:04:22.714Z,6.80
2023-03-26T21:06:49.569Z,6.80
2023-03-26T21:09:23.358Z,6.70
2023-03-26T21:12:05.439Z,6.60
2023-03-26T21:14:40.112Z,6.60
2023-03-26T21:17:15.358Z,6.60
2023-03-26T21:19:46.429Z,6.60
2023-03-26T21:22:35.760Z,6.70
2023-03-26T21:25:11.985Z,6.60
2023-03-26T21:28:39.321Z,6.60
2023-03-26T21:31:19.809Z,6.60
2023-03-26T21:33:49.104Z,6.60
2023-03-26T21:36:19.603Z,6.60
2023-03-26T21:38:47.000Z,6.60
2023-03-26T21:41:24.357Z,6.60
2023-03-26T21:43:51.360Z,6.50
2023-03-26T21:46:18.606Z,6.50
2023-03-26T21:48:47.680Z,6.40
2023-03-26T21:51:14.907Z,6.40
2023-03-26T21:53:42.728Z,6.30
2023-03-26T21:56:35.349Z,6.20
2023-03-26T21:59:27.269Z,6.10
2023-03-26T22:02:23.237Z,6.00
2023-03-26T22:05:21.446Z,6.00
2023-03-26T22:07:56.432Z,5.90
2023-03-26T22:10:23.605Z,6.00
2023-03-26T22:12:50.744Z,5.90
2023-03-26T22:15:18.330Z,6.00
2023-03-26T22:17:53.657Z,5.90
2023-03-26T22:20:24.787Z,5.90
2023-03-26T22:22:53.162Z,5.90
2023-03-26T22:25:21.741Z,5.90
2023-03-26T22:27:50.678Z,5.80
2023-03-26T22:30:18.821Z,5.80
2023-03-26T22:32:45.713Z,5.90
2023-03-26T22:35:16.978Z,5.90
2023-03-26T22:37:43.771Z,5.90
2023-03-26T22:40:17.775Z,5.80
2023-03-26T22:42:44.762Z,5.80
2023-03-26T22:45:12.313Z,5.80
2023-03-26T22:47:40.775Z,5.70
2023-03-26T22:50:09.146Z,5.80
2023-03-26T22:52:36.739Z,5.80
2023-03-26T22:55:05.153Z,5.70
2023-03-26T22:57:31.910Z,5.70
2023-03-26T23:00:07.581Z,5.70
2023-03-26T23:02:34.215Z,5.70
2023-03-26T23:05:01.617Z,5.60
2023-03-26T23:07:28.507Z,5.60
2023-03-26T23:09:55.138Z,5.60
2023-03-26T23:12:21.717Z,5.60
2023-03-26T23:14:52.174Z,5.60
2023-03-26T23:17:19.465Z,5.50
2023-03-26T23:19:46.644Z,5.50
2023-03-26T23:22:13.432Z,5.50
2023-03-26T23:24:40.115Z,5.50
2023-03-26T23:27:07.018Z,5.50
2023-03-26T23:29:34.223Z,5.40
2023-03-26T23:32:01.135Z,5.40
2023-03-26T23:34:27.775Z,5.50
2023-03-26T23:36:54.412Z,5.50
2023-03-26T23:39:21.175Z,5.50
2023-03-26T23:41:47.963Z,5.50
2023-03-26T23:44:16.841Z,5.50
2023-03-26T23:46:44.058Z,5.50
2023-03-26T23:49:11.982Z,5.40
2023-03-26T23:51:38.658Z,5.40
2023-03-26T23:54:05.392Z,5.30
2023-03-26T23:56:32.112Z,5.30
2023-03-26T23:58:59.251Z,5.20
